SHQ weather

Southport Airport
Queensland, Australia

Public forecast

Using degrees Celsius for public forecast. Weather courtesy of forecast.io.

METAR (pilot weather report)

Closest report is Gold Coast Airport, 16.2 nm (29.9 km) SSE. Retrieved 2019/02/23 04:30 UTC (28 minutes ago):

YBCG 230430Z AUTO 18027G40KT 9999 // SCT058 BKN066 25/15 Q1014

TAF (pilot weather forecast)

Forecast is more than 12 hours old.

Closest forecast is Gold Coast Airport, 16.2 nm (29.9 km) SSE. Retrieved 2019/02/19 00:00 UTC (4 days ago):

TAF YBCG 192316Z 2000/2024 16012KT 9999 FEW025 BKN035 FM200100 12014KT 9999 FEW030 FM200900 15012KT 9999 SCT020 FM201200 18008KT 9999 -SHRA BKN018 BKN030 FM202200 16018KT 9999 -SHRA SCT020 SCT040 TEMPO 2018/2022 5000 -SHRA BKN010